ADDS METAR Data INFO
IDs: Format: Raw Decoded Include TAF

Data at: 0845 UTC 27 Jun 2017

KRFI 270835Z AUTO 00000KT 10SM OVC070 22/21 A3005 RMK AO2 T02170209
KRFI 270815Z AUTO 00000KT 10SM OVC070 22/21 A3005 RMK AO2 T02180210
KRFI 270755Z AUTO 00000KT 10SM SCT070 22/21 A3006 RMK AO2 T02170210
KRFI 270735Z AUTO 00000KT 10SM SCT039 22/21 A3006 RMK AO2 T02210211
KRFI 270715Z AUTO 00000KT 10SM CLR 22/21 A3006 RMK AO2 T02180210
KRFI 270655Z AUTO 00000KT 10SM SCT037 22/21 A3006 RMK AO2 T02220210
KRFI 270635Z AUTO 00000KT 10SM SCT037 22/21 A3007 RMK AO2 T02200210
KRFI 270615Z AUTO 00000KT 10SM SCT032 23/21 A3007 RMK AO2 T02270213
KRFI 270555Z AUTO 00000KT 10SM BKN032 23/21 A3007 RMK AO2 T02270212 10290 20222 403100182
KRFI 270535Z AUTO 00000KT 10SM CLR 23/21 A3007 RMK AO2 T02250213
KRFI 270515Z AUTO 00000KT 10SM CLR 23/21 A3006 RMK AO2 T02320210
KRFI 270455Z AUTO 00000KT 10SM CLR 23/21 A3007 RMK AO2 T02270212
KRFI 270435Z AUTO 00000KT 10SM CLR 23/21 A3007 RMK AO2 T02290212
KRFI 270415Z AUTO 00000KT 10SM CLR 24/21 A3006 RMK AO2 T02350212
KRFI 270355Z AUTO 00000KT 10SM CLR 23/21 A3006 RMK AO2 T02310212
KRFI 270335Z AUTO 00000KT 10SM CLR 25/21 A3006 RMK AO2 T02480206
KRFI 270315Z AUTO 00000KT 10SM CLR 25/21 A3005 RMK AO2 T02480210
KRFI 270255Z AUTO 00000KT 10SM CLR 25/21 A3005 RMK AO2 T02510208
KRFI 270235Z AUTO 06003KT 10SM CLR 25/21 A3004 RMK AO2 T02530208
KRFI 270215Z AUTO 10003KT 10SM CLR 26/21 A3004 RMK AO2 T02560209
KRFI 270155Z AUTO 09003KT 10SM CLR 26/21 A3004 RMK AO2 T02600207
KRFI 270135Z AUTO 10003KT 10SM CLR 27/21 A3004 RMK AO2 T02650205
KRFI 270115Z AUTO 00000KT 10SM CLR 27/21 A3004 RMK AO2 T02700207
KRFI 270055Z AUTO 10003KT 10SM CLR 28/21 A3004 RMK AO2 T02750206
KRFI 270035Z AUTO 09003KT 10SM CLR 28/21 A3004 RMK AO2 T02800205
KRFI 270015Z AUTO 00000KT 10SM SCT042 29/20 A3004 RMK AO2 T02860200
KRFI 262355Z AUTO 08003KT 10SM SCT045 29/20 A3003 RMK AO2 T02890204 10310 20277
KRFI 262335Z AUTO 07004KT 10SM SCT045 29/20 A3003 RMK AO2 T02930199
KRFI 262315Z AUTO 07006KT 10SM CLR 30/20 A3003 RMK AO2 T03010201
KRFI 262255Z AUTO 07005KT 10SM CLR 30/20 A3003 RMK AO2 T03020199
KRFI 262235Z AUTO 05005KT 10SM SCT042 31/20 A3004 RMK AO2 T03060199
KRFI 262215Z AUTO 04005KT 10SM SCT042 SCT050 30/20 A3004 RMK AO2 T03000199
KRFI 262155Z AUTO 03004KT 10SM SCT042 30/20 A3004 RMK AO2 T03020199
KRFI 262135Z AUTO 00000KT 10SM SCT042 SCT050 30/20 A3005 RMK AO2 T03020195
KRFI 262115Z AUTO 05004KT 10SM SCT045 SCT050 31/20 A3006 RMK AO2 T03080195
KRFI 262055Z AUTO 03004KT 10SM SCT043 30/20 A3007 RMK AO2 T03030197
KRFI 262035Z AUTO 07003KT 10SM SCT043 30/19 A3007 RMK AO2 T02980190
KRFI 262015Z AUTO 05006KT 10SM CLR 30/19 A3008 RMK AO2 T03010189
KRFI 261955Z AUTO 09006KT 10SM CLR 30/19 A3009 RMK AO2 T02990190
KRFI 261935Z AUTO 11003KT 10SM SCT090 30/19 A3010 RMK AO2 T02980192
KRFI 261915Z AUTO 00000KT 10SM BKN090 29/19 A3011 RMK AO2 T02920187
KRFI 261855Z AUTO 00000KT 10SM SCT090 29/19 A3012 RMK AO2 T02940190
KRFI 261835Z AUTO 10SM SCT090 29/20 A3012 RMK AO2 T02910197
KRFI 261815Z AUTO 00000KT 10SM BKN090 29/20 A3012 RMK AO2 T02860195
KRFI 261755Z AUTO 04004KT 10SM OVC090 28/19 A3014 RMK AO2 T02810194 10282 20197
KRFI 261735Z AUTO 05003KT 10SM OVC090 28/19 A3014 RMK AO2 T02750191
KRFI 261715Z AUTO 05004KT 10SM OVC090 27/19 A3015 RMK AO2 T02740192
KRFI 261655Z AUTO 06003KT 10SM OVC090 27/19 A3016 RMK AO2 T02710192
KRFI 261635Z AUTO 05003KT 10SM SCT060 OVC080 27/19 A3017 RMK AO2 T02650188
KRFI 261615Z AUTO 06003KT 10SM BKN060 OVC080 26/19 A3018 RMK AO2 T02610185
KRFI 261555Z AUTO 10003KT 10SM BKN060 OVC080 26/19 A3018 RMK AO2 T02600191
KRFI 261535Z AUTO 00000KT 10SM BKN050 BKN080 25/19 A3018 RMK AO2 T02530187
KRFI 261515Z AUTO 06005KT 10SM BKN039 BKN050 26/19 A3018 RMK AO2 T02570189
KRFI 261455Z AUTO 10003KT 10SM OVC039 25/19 A3018 RMK AO2 T02480185
KRFI 261435Z AUTO 08004KT 10SM SCT039 BKN050 25/19 A3019 RMK AO2 T02450185
KRFI 261415Z AUTO 10SM BKN050 BKN075 24/19 A3019 RMK AO2 T02420186
KRFI 261355Z AUTO 10SM BKN075 23/19 A3019 RMK AO2 T02290187
KRFI 261335Z AUTO 10SM OVC075 22/19 A3018 RMK AO2 T02200185
KRFI 261315Z AUTO 10SM SCT050 OVC075 22/19 A3018 RMK AO2 T02160186
KRFI 261255Z AUTO 10SM OVC075 21/18 A3018 RMK AO2 T02120184
KRFI 261235Z AUTO 10SM OVC075 20/18 A3017 RMK AO2 T02040181
KRFI 261215Z AUTO 09003KT 10SM SCT039 OVC075 20/18 A3016 RMK AO2 T02000180
KRFI 261155Z AUTO 10SM SCT039 BKN075 20/18 A3017 RMK AO2 70027 T01970180 10211 20182
KRFI 261135Z AUTO 10SM SCT075 19/18 A3017 RMK AO2 T01930177
KRFI 261115Z AUTO 10SM CLR 19/17 A3016 RMK AO2 T01920174
KRFI 261055Z AUTO 00000KT 10SM SCT075 20/18 A3016 RMK AO2 T01950175
KRFI 261035Z AUTO 00000KT 10SM SCT075 19/17 A3016 RMK AO2 T01910171
KRFI 261015Z AUTO 00000KT 10SM CLR 20/17 A3016 RMK AO2 T01950170
KRFI 260955Z AUTO 09003KT 10SM CLR 19/17 A3015 RMK AO2 T01920170
KRFI 260935Z AUTO 00000KT 10SM CLR 19/17 A3016 RMK AO2 T01850172
KRFI 260915Z AUTO 00000KT 10SM CLR 20/17 A3015 RMK AO2 T01960166
KRFI 260855Z AUTO 00000KT 10SM SCT075 20/17 A3016 RMK AO2 T01960171
KRFI 260835Z AUTO 00000KT 10SM SCT075 20/17 A3016 RMK AO2 T01980167
KRFI 260815Z AUTO 00000KT 10SM CLR 19/17 A3017 RMK AO2 T01940171
KRFI 260755Z AUTO 00000KT 10SM CLR 19/17 A3017 RMK AO2 T01900173
KRFI 260735Z AUTO 00000KT 10SM CLR 21/17 A3017 RMK AO2 T02050166
KRFI 260715Z AUTO 00000KT 10SM CLR 21/17 A3017 RMK AO2 T02070165
KRFI 260655Z AUTO 09004KT 10SM CLR 21/17 A3017 RMK AO2 T02090165
KRFI 260635Z AUTO 00000KT 10SM CLR 21/17 A3017 RMK AO2 T02100166
KRFI 260615Z AUTO 00000KT 10SM CLR 21/17 A3017 RMK AO2 T02100167
KRFI 260555Z AUTO 10003KT 10SM CLR 21/17 A3017 RMK AO2 T02110168 10271 20211 402850192
KRFI 260535Z AUTO 10003KT 10SM CLR 21/17 A3019 RMK AO2 T02140170
KRFI 260515Z AUTO 10005KT 10SM CLR 22/17 A3019 RMK AO2 T02150171
KRFI 260455Z AUTO 10004KT 10SM CLR 22/17 A3019 RMK AO2 T02150173
KRFI 260435Z AUTO 09004KT 10SM SCT065 22/17 A3019 RMK AO2 T02160171
KRFI 260415Z AUTO 08004KT 10SM SCT070 22/17 A3019 RMK AO2 T02180169
KRFI 260355Z AUTO 10004KT 10SM CLR 22/17 A3019 RMK AO2 T02200167
KRFI 260335Z AUTO 10005KT 10SM CLR 22/17 A3019 RMK AO2 T02240166
KRFI 260315Z AUTO 10004KT 10SM CLR 23/17 A3019 RMK AO2 T02250169
KRFI 260255Z AUTO 10005KT 10SM CLR 23/17 A3018 RMK AO2 T02280174
KRFI 260235Z AUTO 11004KT 10SM CLR 23/18 A3018 RMK AO2 T02300182
KRFI 260215Z AUTO 10004KT 10SM CLR 23/19 A3017 RMK AO2 T02310192
KRFI 260155Z AUTO 11003KT 10SM CLR 24/19 A3017 RMK AO2 T02380190
KRFI 260135Z AUTO 00000KT 10SM CLR 24/19 A3015 RMK AO2 T02420190
KRFI 260115Z AUTO 08004KT 10SM CLR 25/19 A3014 RMK AO2 T02510188
KRFI 260055Z AUTO 06006KT 10SM CLR 26/19 A3014 RMK AO2 T02590192
KRFI 260035Z AUTO 07005KT 10SM CLR 26/20 A3014 RMK AO2 T02630195
KRFI 260015Z AUTO 05007KT 10SM CLR 27/20 A3014 RMK AO2 T02670195
KRFI 252355Z AUTO 08004KT 10SM CLR 27/20 A3014 RMK AO2 T02700197 10285 20255
KRFI 252335Z AUTO 07006KT 10SM CLR 27/20 A3013 RMK AO2 T02720202
KRFI 252315Z AUTO 05006KT 10SM CLR 28/20 A3014 RMK AO2 T02750203
KRFI 252255Z AUTO 06008KT 10SM CLR 28/21 A3014 RMK AO2 T02800205
KRFI 252235Z AUTO 07005KT 10SM SCT031 BKN038 27/20 A3015 RMK AO2 T02680202
KRFI 252215Z AUTO 08004KT 10SM BKN031 BKN100 27/20 A3016 RMK AO2 T02720200
KRFI 252155Z AUTO 06007KT 10SM BKN100 28/20 A3017 RMK AO2 T02820204
KRFI 252135Z AUTO 08006KT 10SM OVC100 28/20 A3017 RMK AO2 T02760200
KRFI 252115Z AUTO 07006KT 10SM BKN100 28/20 A3018 RMK AO2 T02760203
KRFI 252055Z AUTO 06007G14KT 10SM SCT033 SCT042 28/20 A3018 RMK AO2 T02800199


Page loaded:  08:45 UTC  |   01:45 AM Pacific  |   02:45 AM Mountain  |   03:45 AM Central  |   04:45 AM Eastern

 

ADVISORIES

FORECASTS

FORECASTS

OBSERVATIONS

USER TOOLS

ABOUT US